Time;durP1;ratioP1;P1;durP2;ratioP2;P2;SDS_P1;SDS_P2;PMS_P1;PMS_P2;Temp;Humidity;BMP_temperature;BMP_pressure;BME280_temperature;BME280_humidity;BME280_pressure;Samples;Min_cycle;Max_cycle;Signal;HPM_P1;HPM_P2
2023/01/13 00:00:37;;;;;;;0.50;0.30;;;9.50;99.90;;;;;;5043957;28;20465;-47
2023/01/13 00:03:07;;;;;;;0.50;0.40;;;9.50;99.90;;;;;;5046035;28;21000;-45
2023/01/13 00:05:37;;;;;;;0.50;0.30;;;9.50;99.90;;;;;;5045790;28;20943;-46
2023/01/13 00:08:06;;;;;;;0.40;0.30;;;9.50;99.90;;;;;;5047697;28;20462;-45
2023/01/13 00:10:35;;;;;;;0.70;0.30;;;9.50;99.90;;;;;;5044949;28;20462;-45
2023/01/13 00:13:05;;;;;;;0.40;0.30;;;9.50;99.90;;;;;;5044303;28;20433;-47
2023/01/13 00:15:34;;;;;;;0.50;0.30;;;9.50;99.90;;;;;;5043857;28;20543;-46
2023/01/13 00:18:03;;;;;;;0.50;0.30;;;9.50;99.90;;;;;;5050776;28;20434;-46
2023/01/13 00:20:33;;;;;;;0.60;0.40;;;9.50;99.90;;;;;;5045590;28;20448;-46
2023/01/13 00:23:03;;;;;;;0.50;0.40;;;9.50;99.90;;;;;;5044378;28;20442;-46
2023/01/13 00:25:32;;;;;;;0.50;0.33;;;9.50;99.90;;;;;;5041370;28;20464;-46
2023/01/13 00:28:01;;;;;;;0.50;0.40;;;9.50;99.90;;;;;;5041132;28;20905;-46
2023/01/13 00:30:29;;;;;;;0.73;0.33;;;9.50;99.90;;;;;;5042204;28;20494;-46
2023/01/13 00:32:59;;;;;;;0.50;0.40;;;9.50;99.90;;;;;;5045123;28;20522;-47
2023/01/13 00:35:27;;;;;;;0.60;0.30;;;9.50;99.90;;;;;;5030697;28;20877;-45
2023/01/13 00:37:57;;;;;;;0.70;0.40;;;9.50;99.90;;;;;;5043257;28;21026;-46
2023/01/13 00:40:26;;;;;;;0.40;0.33;;;9.50;99.90;;;;;;5044918;28;20823;-47
2023/01/13 00:45:40;;;;;;;0.50;0.30;;;9.50;99.90;;;;;;5043986;28;20464;-44
2023/01/13 00:48:09;;;;;;;0.60;0.30;;;9.50;99.90;;;;;;5051531;28;20440;-46
2023/01/13 00:50:38;;;;;;;0.60;0.50;;;9.50;99.90;;;;;;5048445;28;20471;-45
2023/01/13 00:53:08;;;;;;;0.90;0.40;;;9.50;99.90;;;;;;5050796;28;20577;-46
2023/01/13 00:55:36;;;;;;;0.40;0.30;;;9.50;99.90;;;;;;5061415;28;20437;-46
2023/01/13 00:58:05;;;;;;;0.50;0.30;;;9.50;99.90;;;;;;5048151;28;20451;-45
2023/01/13 01:00:34;;;;;;;0.40;0.30;;;9.50;99.90;;;;;;5046511;28;20464;-46
2023/01/13 01:03:02;;;;;;;0.50;0.30;;;9.50;99.90;;;;;;5052403;28;20471;-45
2023/01/13 01:05:33;;;;;;;0.50;0.40;;;9.50;99.90;;;;;;5048222;28;20802;-44
2023/01/13 01:08:02;;;;;;;0.87;0.30;;;9.50;99.90;;;;;;5050895;28;20513;-46
2023/01/13 01:10:32;;;;;;;0.63;0.30;;;9.50;99.90;;;;;;5045852;28;20482;-46
2023/01/13 01:13:01;;;;;;;1.37;0.30;;;9.50;99.90;;;;;;5039296;28;20430;-46
2023/01/13 01:15:30;;;;;;;0.50;0.40;;;9.50;99.90;;;;;;5049371;28;20835;-45
2023/01/13 01:17:58;;;;;;;0.87;0.40;;;9.50;99.90;;;;;;5047803;28;20442;-46
2023/01/13 01:20:27;;;;;;;0.50;0.30;;;9.50;99.90;;;;;;5047716;28;20471;-46
2023/01/13 01:22:56;;;;;;;0.80;0.50;;;9.50;99.90;;;;;;5036832;28;20828;-46
2023/01/13 01:25:24;;;;;;;0.50;0.30;;;9.50;99.90;;;;;;5047493;28;20461;-46
2023/01/13 01:27:54;;;;;;;0.50;0.40;;;9.50;99.90;;;;;;5050521;28;20758;-46
2023/01/13 01:30:23;;;;;;;0.50;0.30;;;9.50;99.90;;;;;;5047489;28;20764;-44
2023/01/13 01:32:51;;;;;;;0.80;0.43;;;9.50;99.90;;;;;;5046885;28;20435;-47
2023/01/13 01:35:20;;;;;;;0.40;0.30;;;9.50;99.90;;;;;;5031632;28;20863;-46
2023/01/13 01:37:49;;;;;;;0.40;0.30;;;9.50;99.90;;;;;;5032566;28;20820;-47
2023/01/13 01:40:18;;;;;;;0.67;0.30;;;9.50;99.90;;;;;;5050306;28;20894;-46
2023/01/13 01:45:39;;;;;;;0.73;0.50;;;9.50;99.90;;;;;;4955120;28;20880;-46
2023/01/13 01:48:08;;;;;;;0.50;0.30;;;9.50;99.90;;;;;;5031178;28;21015;-47
2023/01/13 01:50:39;;;;;;;0.90;0.40;;;9.50;99.90;;;;;;5062059;28;20480;-46
2023/01/13 01:53:12;;;;;;;0.50;0.40;;;9.50;99.90;;;;;;5050369;28;20437;-44
2023/01/13 01:55:42;;;;;;;0.50;0.30;;;9.50;99.90;;;;;;5043716;28;20458;-46
2023/01/13 01:58:14;;;;;;;1.20;0.50;;;9.50;99.90;;;;;;5049826;28;20447;-45
2023/01/13 02:00:45;;;;;;;0.70;0.37;;;9.50;99.90;;;;;;5045278;28;20978;-45
2023/01/13 02:03:14;;;;;;;0.90;0.53;;;9.50;99.90;;;;;;5047726;28;20435;-45
2023/01/13 02:05:43;;;;;;;0.60;0.40;;;9.50;99.90;;;;;;5030338;28;20462;-45
2023/01/13 02:08:14;;;;;;;0.50;0.30;;;9.50;99.90;;;;;;5044733;28;20443;-46
2023/01/13 02:10:45;;;;;;;0.50;0.37;;;9.50;99.90;;;;;;5047446;28;20467;-46
2023/01/13 02:13:14;;;;;;;0.60;0.50;;;9.50;99.90;;;;;;5047320;28;20429;-46
2023/01/13 02:15:50;;;;;;;0.90;0.40;;;9.50;99.90;;;;;;5028593;28;20494;-46
2023/01/13 02:18:42;;;;;;;1.07;0.40;;;9.50;99.90;;;;;;5046879;28;20969;-46
2023/01/13 02:21:31;;;;;;;0.60;0.37;;;9.50;99.90;;;;;;5060649;28;20961;-46
2023/01/13 02:27:42;;;;;;;0.40;0.30;;;9.50;99.90;;;;;;5042716;28;20557;-46
2023/01/13 02:33:28;;;;;;;0.80;0.43;;;9.50;99.90;;;;;;5030396;28;20463;-47
2023/01/13 02:36:01;;;;;;;0.60;0.30;;;9.50;99.90;;;;;;5042564;28;20883;-47
2023/01/13 02:38:35;;;;;;;1.23;0.40;;;9.50;99.90;;;;;;5063038;28;20715;-46
2023/01/13 02:44:09;;;;;;;1.00;0.50;;;9.50;99.90;;;;;;5060453;28;21043;-47
2023/01/13 02:46:48;;;;;;;0.70;0.30;;;9.50;99.90;;;;;;5048526;28;20481;-45
2023/01/13 02:49:27;;;;;;;1.33;0.33;;;9.50;99.90;;;;;;5044230;28;20865;-45
2023/01/13 02:52:02;;;;;;;1.17;0.40;;;9.50;99.90;;;;;;5041289;28;20483;-47
2023/01/13 02:54:33;;;;;;;0.70;0.40;;;9.50;99.90;;;;;;5045288;28;20539;-46
2023/01/13 02:57:03;;;;;;;0.87;0.50;;;9.50;99.90;;;;;;5040671;28;20472;-46
2023/01/13 02:59:33;;;;;;;1.07;0.63;;;9.50;99.90;;;;;;5049975;28;20435;-46
2023/01/13 03:02:06;;;;;;;1.90;0.40;;;9.50;99.90;;;;;;5041585;28;20464;-45
2023/01/13 03:04:50;;;;;;;1.50;0.50;;;9.50;99.90;;;;;;5062894;28;20788;-46
2023/01/13 03:07:54;;;;;;;0.70;0.40;;;9.50;99.90;;;;;;5049092;28;20897;-46
2023/01/13 03:10:33;;;;;;;1.10;0.40;;;9.50;99.90;;;;;;5061369;28;20550;-46
2023/01/13 03:13:12;;;;;;;1.47;0.40;;;9.50;99.90;;;;;;5044566;28;20466;-46
2023/01/13 03:15:54;;;;;;;0.90;0.50;;;9.50;99.90;;;;;;5060516;28;20463;-46
2023/01/13 03:18:38;;;;;;;0.43;0.30;;;9.50;99.90;;;;;;5045854;28;20442;-45
2023/01/13 03:21:15;;;;;;;1.40;0.60;;;9.40;99.90;;;;;;5049736;28;20484;-46
2023/01/13 03:23:51;;;;;;;1.27;0.30;;;9.50;99.90;;;;;;5045231;28;20451;-46
2023/01/13 03:26:26;;;;;;;0.50;0.33;;;9.50;99.90;;;;;;5050813;28;20441;-46
2023/01/13 03:29:00;;;;;;;2.93;1.53;;;9.50;99.90;;;;;;5048084;28;20540;-45
2023/01/13 03:31:32;;;;;;;0.83;0.40;;;9.50;99.90;;;;;;5043962;28;20517;-46
2023/01/13 03:34:07;;;;;;;1.50;0.50;;;9.50;99.90;;;;;;5044499;28;20490;-46
2023/01/13 03:36:38;;;;;;;2.00;0.50;;;9.50;99.90;;;;;;5045620;28;20949;-46
2023/01/13 03:39:12;;;;;;;1.30;0.40;;;9.50;99.90;;;;;;5047794;28;20451;-46
2023/01/13 03:41:46;;;;;;;2.30;0.60;;;9.50;99.90;;;;;;5044032;28;21032;-46
2023/01/13 03:44:22;;;;;;;1.60;0.57;;;9.50;99.90;;;;;;5043753;28;20453;-44
2023/01/13 03:46:59;;;;;;;1.13;0.70;;;9.50;99.90;;;;;;5047461;28;20550;-46
2023/01/13 03:49:34;;;;;;;0.80;0.43;;;9.50;99.90;;;;;;5045502;28;20508;-47
2023/01/13 03:52:07;;;;;;;0.87;0.50;;;9.50;99.90;;;;;;5046914;28;20468;-47
2023/01/13 03:54:42;;;;;;;0.80;0.53;;;9.50;99.90;;;;;;5043144;28;20951;-47
2023/01/13 03:57:14;;;;;;;3.10;0.80;;;9.50;99.90;;;;;;5043507;28;20918;-46
2023/01/13 03:59:47;;;;;;;3.10;0.90;;;9.50;99.90;;;;;;5042793;28;20497;-46
2023/01/13 04:02:25;;;;;;;1.93;0.60;;;9.50;99.90;;;;;;5043300;28;20804;-45
2023/01/13 04:05:00;;;;;;;4.00;0.53;;;9.40;99.90;;;;;;5045972;28;20648;-47
2023/01/13 04:07:39;;;;;;;2.90;0.70;;;9.50;99.90;;;;;;5044708;28;20490;-46
2023/01/13 04:10:11;;;;;;;1.63;0.47;;;9.50;99.90;;;;;;5038667;28;20463;-47
2023/01/13 04:13:03;;;;;;;4.10;0.67;;;9.50;99.90;;;;;;5028944;28;20475;-46
2023/01/13 04:15:36;;;;;;;2.13;0.70;;;9.50;99.90;;;;;;5046575;28;20484;-46
2023/01/13 04:18:24;;;;;;;3.43;0.80;;;9.50;99.90;;;;;;5048912;28;20450;-45
2023/01/13 04:20:58;;;;;;;1.03;0.53;;;9.50;99.90;;;;;;5057463;28;20460;-46
2023/01/13 04:23:26;;;;;;;1.00;0.40;;;9.50;99.90;;;;;;5056283;28;20452;-45
2023/01/13 04:25:55;;;;;;;2.50;0.90;;;9.40;99.90;;;;;;5046985;28;20498;-46
2023/01/13 04:28:24;;;;;;;2.60;1.03;;;9.50;99.90;;;;;;5051389;28;20467;-46
2023/01/13 04:30:53;;;;;;;3.50;0.77;;;9.50;99.90;;;;;;5043978;28;20471;-46
2023/01/13 04:33:22;;;;;;;2.63;0.97;;;9.40;99.90;;;;;;5050092;28;20474;-47
2023/01/13 04:35:51;;;;;;;1.63;0.53;;;9.50;99.90;;;;;;5047254;28;20936;-46
2023/01/13 04:38:22;;;;;;;1.73;0.67;;;9.50;99.90;;;;;;5050404;28;20523;-46
2023/01/13 04:40:50;;;;;;;1.43;0.50;;;9.50;99.90;;;;;;5039592;28;20471;-46
2023/01/13 04:43:19;;;;;;;1.77;0.60;;;9.50;99.90;;;;;;5048065;28;20444;-46
2023/01/13 04:45:47;;;;;;;4.13;1.00;;;9.50;99.90;;;;;;5057269;28;20463;-47
2023/01/13 04:48:16;;;;;;;2.10;1.03;;;9.50;99.90;;;;;;5047740;28;20815;-46
2023/01/13 04:50:44;;;;;;;3.47;0.93;;;9.50;99.90;;;;;;5046460;28;20895;-46
2023/01/13 04:53:13;;;;;;;1.37;0.47;;;9.40;99.90;;;;;;5040557;28;20466;-46
2023/01/13 04:55:43;;;;;;;2.67;1.10;;;9.50;99.90;;;;;;5049334;28;20444;-46
2023/01/13 04:58:12;;;;;;;1.90;0.70;;;9.50;99.90;;;;;;5047359;28;20437;-44
2023/01/13 05:00:41;;;;;;;3.07;0.80;;;9.40;99.90;;;;;;5037368;28;21025;-46
2023/01/13 05:03:10;;;;;;;2.53;0.83;;;9.40;99.90;;;;;;5052686;28;20470;-46
2023/01/13 05:05:39;;;;;;;4.20;0.70;;;9.50;99.90;;;;;;5053755;28;20482;-45
2023/01/13 05:08:08;;;;;;;2.50;0.77;;;9.40;99.90;;;;;;5048611;28;20448;-46
2023/01/13 05:10:37;;;;;;;3.63;0.90;;;9.40;99.90;;;;;;5043137;28;20472;-45
2023/01/13 05:18:40;;;;;;;2.07;1.07;;;9.40;99.90;;;;;;5053399;28;20429;-47
2023/01/13 05:25:20;;;;;;;1.13;0.60;;;9.40;99.90;;;;;;5045959;28;20486;-47
2023/01/13 05:26:43;;;;;;;2.80;0.60;;;9.40;99.90;;;;;;5049796;28;20488;-46
2023/01/13 05:29:13;;;;;;;0.90;0.50;;;9.40;99.90;;;;;;5050161;28;20505;-46
2023/01/13 05:31:41;;;;;;;2.97;1.23;;;9.40;99.90;;;;;;5045491;28;20514;-46
2023/01/13 05:34:10;;;;;;;1.47;0.57;;;9.40;99.90;;;;;;5046004;28;20504;-46
2023/01/13 05:36:38;;;;;;;3.10;1.27;;;9.40;99.90;;;;;;5049847;28;20542;-47
2023/01/13 05:39:07;;;;;;;2.03;1.20;;;9.40;99.90;;;;;;5050557;28;20464;-45
2023/01/13 05:44:22;;;;;;;3.87;0.73;;;9.40;99.90;;;;;;5047832;28;20431;-46
2023/01/13 05:46:51;;;;;;;2.30;0.70;;;9.40;99.90;;;;;;5043689;28;20476;-46
2023/01/13 05:49:19;;;;;;;2.67;0.60;;;9.40;99.90;;;;;;5046345;28;20939;-47
2023/01/13 05:51:48;;;;;;;2.00;0.60;;;9.40;99.90;;;;;;5046783;28;21045;-46
2023/01/13 05:54:16;;;;;;;2.30;0.50;;;9.40;99.90;;;;;;5049442;28;20608;-46
2023/01/13 05:56:45;;;;;;;1.80;0.73;;;9.40;99.90;;;;;;5045902;28;20534;-45
2023/01/13 05:59:13;;;;;;;5.03;0.70;;;9.40;99.90;;;;;;5052840;28;20544;-45
2023/01/13 06:01:43;;;;;;;2.50;0.70;;;9.40;99.90;;;;;;5046449;28;20976;-47
2023/01/13 06:04:12;;;;;;;3.30;0.70;;;9.40;99.90;;;;;;5048442;28;20440;-46
2023/01/13 06:06:42;;;;;;;4.10;0.77;;;9.40;99.90;;;;;;5036657;28;20569;-46
2023/01/13 06:09:10;;;;;;;1.90;0.70;;;9.40;99.90;;;;;;5044177;28;20476;-47
2023/01/13 06:11:39;;;;;;;9.13;0.80;;;9.40;99.90;;;;;;5047657;28;20518;-46
2023/01/13 06:14:08;;;;;;;2.00;0.70;;;9.40;99.90;;;;;;5035002;28;20470;-47
2023/01/13 06:16:36;;;;;;;1.13;0.73;;;9.40;99.90;;;;;;5044232;28;20749;-45
2023/01/13 06:19:08;;;;;;;1.30;0.60;;;9.40;99.90;;;;;;5044110;28;20473;-46
2023/01/13 06:21:36;;;;;;;1.90;0.63;;;9.40;99.90;;;;;;5049905;28;20479;-46
2023/01/13 06:24:09;;;;;;;1.43;0.80;;;9.40;99.90;;;;;;5043785;28;21305;-45
2023/01/13 06:26:40;;;;;;;1.00;0.67;;;9.40;99.90;;;;;;5051640;28;20451;-46
2023/01/13 06:29:08;;;;;;;2.27;1.27;;;9.40;99.90;;;;;;5051758;28;20929;-47
2023/01/13 06:31:39;;;;;;;1.30;0.60;;;9.40;99.90;;;;;;5050605;28;20474;-47
2023/01/13 06:34:12;;;;;;;1.43;0.43;;;9.40;99.90;;;;;;5036332;28;20468;-45
2023/01/13 06:36:44;;;;;;;2.17;0.60;;;9.40;99.90;;;;;;5051138;28;20846;-47
2023/01/13 06:39:15;;;;;;;3.90;0.73;;;9.40;99.90;;;;;;5048938;28;20494;-46
2023/01/13 06:44:36;;;;;;;3.50;0.80;;;9.40;99.90;;;;;;5050690;28;21014;-46
2023/01/13 06:47:07;;;;;;;0.80;0.70;;;9.40;99.90;;;;;;5045951;28;20476;-46
2023/01/13 06:49:36;;;;;;;2.90;0.80;;;9.40;99.90;;;;;;5046385;28;20456;-46
2023/01/13 06:52:05;;;;;;;0.93;0.70;;;9.40;99.90;;;;;;5053627;28;21405;-45
2023/01/13 06:54:34;;;;;;;1.90;1.00;;;9.40;99.90;;;;;;5053487;28;20468;-46
2023/01/13 06:57:04;;;;;;;3.00;0.77;;;9.40;99.90;;;;;;5058097;28;20495;-46
2023/01/13 06:59:34;;;;;;;1.33;0.63;;;9.40;99.90;;;;;;5065231;28;20453;-48
2023/01/13 07:02:03;;;;;;;4.10;0.80;;;9.40;99.90;;;;;;5081784;22;20470;-74
2023/01/13 07:04:31;;;;;;;1.20;0.60;;;9.40;99.90;;;;;;5021789;28;20443;-75
2023/01/13 07:07:01;;;;;;;0.90;0.50;;;9.40;99.90;;;;;;5053075;28;20522;-75
2023/01/13 07:09:32;;;;;;;0.97;0.60;;;9.40;99.90;;;;;;5012121;28;20436;-73
2023/01/13 07:12:01;;;;;;;0.70;0.57;;;9.40;99.90;;;;;;5048569;28;20487;-75
2023/01/13 07:17:23;;;;;;;5.17;1.17;;;9.40;99.90;;;;;;5026581;28;20537;-74
2023/01/13 07:19:53;;;;;;;0.90;0.73;;;9.40;99.90;;;;;;5026650;28;20480;-75
2023/01/13 07:22:23;;;;;;;1.77;0.57;;;9.40;99.90;;;;;;5023422;28;20919;-74
2023/01/13 07:24:52;;;;;;;3.20;1.00;;;9.40;99.90;;;;;;5021972;28;20438;-75
2023/01/13 07:27:20;;;;;;;1.80;0.67;;;9.40;99.90;;;;;;5015771;28;20486;-74
2023/01/13 07:29:49;;;;;;;0.80;0.77;;;9.40;99.90;;;;;;5014611;28;20429;-74
2023/01/13 07:32:17;;;;;;;1.27;0.60;;;9.40;99.90;;;;;;5020032;28;20925;-73
2023/01/13 07:34:46;;;;;;;4.00;0.60;;;9.40;99.90;;;;;;5030167;28;20468;-75
2023/01/13 07:37:14;;;;;;;1.10;0.67;;;9.40;99.90;;;;;;5030601;28;20485;-73
2023/01/13 07:39:45;;;;;;;3.13;0.90;;;9.30;99.90;;;;;;5024763;28;20574;-73
2023/01/13 07:45:01;;;;;;;1.17;0.50;;;9.40;99.90;;;;;;5027776;28;20437;-74
2023/01/13 07:47:30;;;;;;;1.87;0.50;;;9.40;99.90;;;;;;5023253;28;20477;-74
2023/01/13 07:49:58;;;;;;;0.87;0.40;;;9.40;99.90;;;;;;5031659;28;20833;-74
2023/01/13 07:52:26;;;;;;;1.00;0.50;;;9.40;99.90;;;;;;5019247;28;20472;-74
2023/01/13 07:54:56;;;;;;;1.37;0.73;;;9.40;99.90;;;;;;5033358;28;20473;-75
2023/01/13 07:57:25;;;;;;;1.57;0.70;;;9.40;99.90;;;;;;5025844;28;20473;-73
2023/01/13 07:59:53;;;;;;;0.63;0.50;;;9.40;99.90;;;;;;5033986;28;20511;-74
2023/01/13 08:02:22;;;;;;;1.37;0.60;;;9.40;99.90;;;;;;5015569;28;20554;-74
2023/01/13 08:04:52;;;;;;;2.07;0.60;;;9.40;99.90;;;;;;5020127;28;20460;-75
2023/01/13 08:07:20;;;;;;;2.80;0.77;;;9.40;99.90;;;;;;5004882;28;20462;-73
2023/01/13 08:09:49;;;;;;;2.20;0.57;;;9.30;99.90;;;;;;5025072;28;20477;-75
2023/01/13 08:15:08;;;;;;;1.73;0.60;;;9.40;99.90;;;;;;5021912;28;20468;-68
2023/01/13 08:17:37;;;;;;;3.80;0.80;;;9.30;99.90;;;;;;5014469;28;20469;-72
2023/01/13 08:20:07;;;;;;;1.60;0.77;;;9.40;99.90;;;;;;5031519;28;20434;-73
2023/01/13 08:22:37;;;;;;;1.90;0.77;;;9.30;99.90;;;;;;5000509;28;21364;-74
2023/01/13 08:25:06;;;;;;;1.43;0.60;;;9.40;99.90;;;;;;5010998;28;20473;-74
2023/01/13 08:27:36;;;;;;;1.60;0.60;;;9.40;99.90;;;;;;5010895;28;20525;-74
2023/01/13 08:30:06;;;;;;;0.70;0.60;;;9.40;99.90;;;;;;5004416;28;21010;-74
2023/01/13 08:32:35;;;;;;;1.93;0.73;;;9.30;99.90;;;;;;5032044;28;20461;-73
2023/01/13 08:35:03;;;;;;;2.97;1.30;;;9.30;99.90;;;;;;5037435;28;20577;-73
2023/01/13 08:37:32;;;;;;;0.70;0.60;;;9.30;99.90;;;;;;5047326;28;20472;-73
2023/01/13 08:40:01;;;;;;;4.03;0.90;;;9.30;99.90;;;;;;5010929;28;20439;-75
2023/01/13 08:42:31;;;;;;;1.83;0.67;;;9.40;99.90;;;;;;5016651;28;20488;-75
2023/01/13 08:45:02;;;;;;;1.80;0.87;;;9.30;99.90;;;;;;5014769;28;20434;-73
2023/01/13 08:47:30;;;;;;;1.70;0.60;;;9.30;99.90;;;;;;5000496;28;20502;-75
2023/01/13 08:49:59;;;;;;;2.00;0.70;;;9.30;99.90;;;;;;5010254;28;20446;-75
2023/01/13 08:52:28;;;;;;;5.07;1.10;;;9.30;99.90;;;;;;5020058;28;20569;-74
2023/01/13 08:54:57;;;;;;;3.23;1.00;;;9.30;99.90;;;;;;5005638;28;20580;-74
2023/01/13 08:57:26;;;;;;;4.30;1.17;;;9.30;99.90;;;;;;5012336;28;20891;-74
2023/01/13 08:59:55;;;;;;;3.77;1.10;;;9.30;99.90;;;;;;5008527;28;20439;-74
2023/01/13 09:02:25;;;;;;;4.13;1.30;;;9.30;99.90;;;;;;5034390;28;20480;-75
2023/01/13 09:04:54;;;;;;;2.77;0.70;;;9.30;99.90;;;;;;5004391;28;20823;-73
2023/01/13 09:07:23;;;;;;;2.30;0.80;;;9.30;99.90;;;;;;5015400;28;20836;-73
2023/01/13 09:09:52;;;;;;;2.10;1.13;;;9.30;99.90;;;;;;5024527;28;20457;-67
2023/01/13 09:15:07;;;;;;;3.03;1.10;;;9.30;99.90;;;;;;5024143;28;20464;-69
2023/01/13 09:17:37;;;;;;;3.00;0.90;;;9.30;99.90;;;;;;5021787;28;21347;-68
2023/01/13 09:20:07;;;;;;;2.97;1.23;;;9.30;99.90;;;;;;5032968;28;20451;-68
2023/01/13 09:22:36;;;;;;;4.60;1.23;;;9.40;99.90;;;;;;5010391;28;20516;-69
2023/01/13 09:25:05;;;;;;;2.33;1.10;;;9.40;99.90;;;;;;4998830;28;20506;-68
2023/01/13 09:27:34;;;;;;;2.80;1.00;;;9.40;99.90;;;;;;5031361;28;20527;-67
2023/01/13 09:30:03;;;;;;;4.47;0.80;;;9.40;99.90;;;;;;5018119;28;20453;-69
2023/01/13 09:32:32;;;;;;;6.40;1.07;;;9.40;99.90;;;;;;5012775;28;21074;-67
2023/01/13 09:35:01;;;;;;;4.40;1.10;;;9.40;99.90;;;;;;5019620;28;20925;-66
2023/01/13 09:37:35;;;;;;;1.37;0.73;;;9.40;99.90;;;;;;5020954;28;20742;-68
2023/01/13 09:40:06;;;;;;;2.77;0.80;;;9.40;99.90;;;;;;4996725;28;20490;-68
2023/01/13 09:45:35;;;;;;;2.60;1.37;;;9.40;99.90;;;;;;5035628;28;20867;-68
2023/01/13 09:48:08;;;;;;;1.77;0.80;;;9.40;99.90;;;;;;5015579;28;20968;-67
2023/01/13 09:50:59;;;;;;;2.00;0.87;;;9.40;99.90;;;;;;5031552;28;20543;-68
2023/01/13 09:53:32;;;;;;;2.53;1.00;;;9.40;99.90;;;;;;5011185;28;20457;-67
2023/01/13 09:56:01;;;;;;;4.40;1.67;;;9.40;99.90;;;;;;5005539;28;20484;-67
2023/01/13 09:58:29;;;;;;;1.20;0.73;;;9.40;99.90;;;;;;5008277;28;20877;-68
2023/01/13 10:01:09;;;;;;;4.00;1.33;;;9.40;99.90;;;;;;5017006;28;20441;-67
2023/01/13 10:03:38;;;;;;;3.67;1.00;;;9.40;99.90;;;;;;5017884;28;20858;-67
2023/01/13 10:06:17;;;;;;;3.33;0.93;;;9.40;99.90;;;;;;5044336;28;20598;-66
2023/01/13 10:08:48;;;;;;;3.57;0.80;;;9.40;99.90;;;;;;5000904;28;20867;-75
2023/01/13 10:14:13;;;;;;;2.67;0.93;;;9.40;99.90;;;;;;5001013;28;20973;-74
2023/01/13 10:16:47;;;;;;;1.43;0.70;;;9.40;99.90;;;;;;5012683;28;20965;-74
2023/01/13 10:19:22;;;;;;;2.77;0.70;;;9.40;99.90;;;;;;5004889;28;20438;-74
2023/01/13 10:22:18;;;;;;;1.37;0.80;;;9.40;99.90;;;;;;5030461;28;20512;-68
2023/01/13 10:25:17;;;;;;;6.00;1.37;;;9.40;99.90;;;;;;4999579;28;20485;-68
2023/01/13 10:27:51;;;;;;;2.23;1.40;;;9.40;99.90;;;;;;5032157;28;20462;-73
2023/01/13 10:30:26;;;;;;;1.50;1.00;;;9.40;99.90;;;;;;5006278;28;20447;-73
2023/01/13 10:32:57;;;;;;;3.80;0.77;;;9.40;99.90;;;;;;5005070;28;20499;-75
2023/01/13 10:35:53;;;;;;;2.80;0.87;;;9.40;99.90;;;;;;5040910;28;20461;-68
2023/01/13 10:38:25;;;;;;;2.50;1.30;;;9.40;99.90;;;;;;5030049;28;21052;-66
2023/01/13 10:40:55;;;;;;;2.77;1.57;;;9.40;99.90;;;;;;5014313;28;20472;-67
2023/01/13 10:43:23;;;;;;;7.10;1.13;;;9.40;99.90;;;;;;5029221;28;20457;-68
2023/01/13 10:45:58;;;;;;;3.00;1.17;;;9.40;99.90;;;;;;5000609;28;21071;-68
2023/01/13 10:48:37;;;;;;;4.87;1.07;;;9.40;99.90;;;;;;5042537;28;20439;-67
2023/01/13 10:51:20;;;;;;;2.23;0.87;;;9.40;99.90;;;;;;5041956;28;20429;-67
2023/01/13 10:53:54;;;;;;;1.87;0.70;;;9.40;99.90;;;;;;5024982;28;20886;-68
2023/01/13 10:56:25;;;;;;;4.87;1.57;;;9.40;99.90;;;;;;5030300;28;20470;-67
2023/01/13 10:59:14;;;;;;;3.97;1.27;;;9.40;99.90;;;;;;5013024;28;20434;-66
2023/01/13 11:01:54;;;;;;;3.80;1.83;;;9.40;99.90;;;;;;5015290;28;20472;-68
2023/01/13 11:04:34;;;;;;;5.17;1.60;;;9.50;99.90;;;;;;4984636;28;20529;-69
2023/01/13 11:07:07;;;;;;;7.53;1.73;;;9.50;99.90;;;;;;4979030;28;20479;-67
2023/01/13 11:09:37;;;;;;;8.30;2.03;;;9.50;99.90;;;;;;4999300;28;20918;-68
2023/01/13 11:12:27;;;;;;;2.03;1.47;;;9.40;99.90;;;;;;5010619;28;20866;-68
2023/01/13 11:15:00;;;;;;;4.03;1.37;;;9.40;99.90;;;;;;4992935;28;20674;-68
2023/01/13 11:17:34;;;;;;;3.00;1.60;;;9.40;99.90;;;;;;4984188;28;20462;-68
2023/01/13 11:20:17;;;;;;;3.77;1.43;;;9.40;99.90;;;;;;4998554;28;20450;-69
2023/01/13 11:22:47;;;;;;;8.17;1.70;;;9.40;99.90;;;;;;4984114;28;20493;-68
2023/01/13 11:25:30;;;;;;;6.33;1.30;;;9.40;99.90;;;;;;4981475;28;20456;-66
2023/01/13 11:28:05;;;;;;;4.73;0.97;;;9.40;99.90;;;;;;5008200;28;20474;-68
2023/01/13 11:30:41;;;;;;;5.53;2.27;;;9.40;99.90;;;;;;5002084;28;20449;-68
2023/01/13 11:33:33;;;;;;;3.57;2.67;;;9.40;99.90;;;;;;5018816;28;20570;-68
2023/01/13 11:36:08;;;;;;;9.60;1.97;;;9.40;99.90;;;;;;5010701;28;21001;-67
2023/01/13 11:38:44;;;;;;;4.80;1.50;;;9.40;99.90;;;;;;5008649;28;20518;-67
2023/01/13 11:41:22;;;;;;;3.93;1.73;;;9.40;99.90;;;;;;5003270;28;20474;-68
2023/01/13 11:43:54;;;;;;;9.03;1.73;;;9.40;99.90;;;;;;4991150;28;20454;-69
2023/01/13 11:46:27;;;;;;;2.93;0.97;;;9.40;99.90;;;;;;5002586;28;20437;-67
2023/01/13 11:48:56;;;;;;;5.43;1.63;;;9.40;99.90;;;;;;5008105;28;20987;-67
2023/01/13 11:51:33;;;;;;;4.60;1.00;;;9.40;99.90;;;;;;5019010;28;20467;-66
2023/01/13 11:54:21;;;;;;;3.33;1.13;;;9.40;99.90;;;;;;5008257;28;20440;-67
2023/01/13 11:57:09;;;;;;;6.20;1.57;;;9.40;99.90;;;;;;4995095;28;20551;-68
2023/01/13 12:00:02;;;;;;;3.17;1.07;;;9.40;99.90;;;;;;5010934;28;21122;-67
2023/01/13 12:02:56;;;;;;;5.00;0.90;;;9.40;99.90;;;;;;5013214;28;20476;-66
2023/01/13 12:05:34;;;;;;;2.93;1.30;;;9.40;99.90;;;;;;5024998;28;20438;-67
2023/01/13 12:08:15;;;;;;;3.83;1.10;;;9.40;99.90;;;;;;5015569;28;20473;-67
2023/01/13 12:10:56;;;;;;;3.53;1.20;;;9.40;99.90;;;;;;5039485;28;20528;-67
2023/01/13 12:13:35;;;;;;;2.67;1.30;;;9.40;99.90;;;;;;5022649;28;20884;-67
2023/01/13 12:16:14;;;;;;;3.50;1.63;;;9.40;99.90;;;;;;5020321;28;20927;-73
2023/01/13 12:19:16;;;;;;;4.47;1.57;;;9.40;99.90;;;;;;5012509;28;20539;-73
2023/01/13 12:22:08;;;;;;;4.87;1.37;;;9.40;99.90;;;;;;5037773;28;20491;-73
2023/01/13 12:24:44;;;;;;;3.90;1.70;;;9.40;99.90;;;;;;5016640;28;20463;-74
2023/01/13 12:27:20;;;;;;;4.00;1.63;;;9.40;99.90;;;;;;5018817;28;20468;-74
2023/01/13 12:29:57;;;;;;;1.60;0.73;;;9.40;99.90;;;;;;5024626;28;20448;-72
2023/01/13 12:32:33;;;;;;;4.63;1.40;;;9.40;99.90;;;;;;5022737;28;20487;-74
2023/01/13 12:35:15;;;;;;;4.60;1.20;;;9.40;99.90;;;;;;5022503;28;20536;-74
2023/01/13 12:37:51;;;;;;;5.80;1.40;;;9.40;99.90;;;;;;5024272;28;20468;-73
2023/01/13 12:40:28;;;;;;;3.07;1.33;;;9.40;99.90;;;;;;5033517;28;20443;-74
2023/01/13 12:46:14;;;;;;;4.33;1.30;;;9.40;99.90;;;;;;4997337;28;20441;-74
2023/01/13 12:48:48;;;;;;;3.40;1.00;;;9.40;99.90;;;;;;5026658;28;20471;-74
2023/01/13 12:51:24;;;;;;;2.00;0.93;;;9.40;99.90;;;;;;5029213;28;20521;-74
2023/01/13 12:53:54;;;;;;;6.23;1.47;;;9.40;99.90;;;;;;5047633;28;20420;-74
2023/01/13 12:56:44;;;;;;;4.67;1.80;;;9.40;99.90;;;;;;5021455;28;20552;-74
2023/01/13 12:59:34;;;;;;;6.07;1.33;;;9.40;99.90;;;;;;5030319;28;20450;-73
2023/01/13 13:02:36;;;;;;;5.93;1.40;;;9.40;99.90;;;;;;5012441;28;20475;-75
2023/01/13 13:05:37;;;;;;;3.03;1.50;;;9.40;99.90;;;;;;5003393;28;20433;-75
2023/01/13 13:08:14;;;;;;;3.10;1.00;;;9.40;99.90;;;;;;5001371;28;20506;-74
2023/01/13 13:10:56;;;;;;;7.50;1.37;;;9.40;99.90;;;;;;5016476;28;20453;-73
2023/01/13 13:13:39;;;;;;;2.40;1.03;;;9.40;99.90;;;;;;5032517;28;20516;-72
2023/01/13 13:16:44;;;;;;;1.70;1.00;;;9.40;99.90;;;;;;5020895;28;20535;-74
2023/01/13 13:19:42;;;;;;;1.97;1.17;;;9.40;99.90;;;;;;5042173;28;20442;-74
2023/01/13 13:22:40;;;;;;;4.40;0.97;;;9.40;99.90;;;;;;5028540;28;20526;-73
2023/01/13 13:25:25;;;;;;;6.30;2.23;;;9.40;99.90;;;;;;5002759;28;20816;-74
2023/01/13 13:28:15;;;;;;;3.07;0.70;;;9.40;99.90;;;;;;5017895;28;20502;-73
2023/01/13 13:30:50;;;;;;;4.20;1.03;;;9.40;99.90;;;;;;5013361;28;20445;-73
2023/01/13 13:33:35;;;;;;;2.30;1.30;;;9.40;99.90;;;;;;5045265;28;20465;-74
2023/01/13 13:36:20;;;;;;;3.60;0.97;;;9.40;99.90;;;;;;5019069;28;21047;-74
2023/01/13 13:47:35;;;;;;;2.60;0.80;;;9.40;99.90;;;;;;5039386;28;20473;-75
2023/01/13 13:50:07;;;;;;;2.57;1.00;;;9.40;99.90;;;;;;5004239;28;20451;-74
2023/01/13 13:52:42;;;;;;;4.13;1.07;;;9.30;99.90;;;;;;5017886;28;20572;-75
2023/01/13 13:55:18;;;;;;;4.53;1.40;;;9.40;99.90;;;;;;5021661;28;20487;-74
2023/01/13 13:57:49;;;;;;;3.37;1.43;;;9.30;99.90;;;;;;5013277;28;20560;-75
2023/01/13 14:00:24;;;;;;;2.93;1.60;;;9.40;99.90;;;;;;5019067;28;20465;-74
2023/01/13 14:02:57;;;;;;;1.50;1.20;;;9.30;99.90;;;;;;5009726;28;20490;-74
2023/01/13 14:05:27;;;;;;;3.73;0.93;;;9.30;99.90;;;;;;5011861;28;20479;-75
2023/01/13 14:08:01;;;;;;;2.83;1.03;;;9.40;99.90;;;;;;5004285;28;20534;-74
2023/01/13 14:10:32;;;;;;;2.63;0.90;;;9.30;99.90;;;;;;5007235;28;20949;-74
2023/01/13 14:13:02;;;;;;;4.63;1.00;;;9.30;99.90;;;;;;5008564;28;20478;-73
2023/01/13 14:15:33;;;;;;;3.33;1.30;;;9.40;99.90;;;;;;5004153;28;20473;-75
2023/01/13 14:18:04;;;;;;;1.60;1.07;;;9.30;99.90;;;;;;5011239;28;20855;-73
2023/01/13 14:20:33;;;;;;;8.37;1.67;;;9.30;99.90;;;;;;5005808;28;20442;-73
2023/01/13 14:23:04;;;;;;;3.70;1.27;;;9.30;99.90;;;;;;4996463;28;20509;-74
2023/01/13 14:25:38;;;;;;;3.53;1.30;;;9.30;99.90;;;;;;5011837;28;20449;-73
2023/01/13 14:28:25;;;;;;;2.23;1.23;;;9.30;99.90;;;;;;5014921;28;20545;-73